createdAt,value
2023-03-21T04:41:16.879Z,8.63
2023-03-21T04:44:21.046Z,8.44
2023-03-21T04:47:24.059Z,8.33
2023-03-21T04:50:29.843Z,8.27
2023-03-21T04:53:32.632Z,8.20
2023-03-21T04:56:36.406Z,8.16
2023-03-21T04:59:39.145Z,8.11
2023-03-21T05:02:42.498Z,8.11
2023-03-21T05:05:46.046Z,8.11
2023-03-21T05:08:49.357Z,8.16
2023-03-21T05:11:53.087Z,8.24
2023-03-21T05:14:56.710Z,8.41
2023-03-21T05:17:59.427Z,8.49
2023-03-21T05:21:04.249Z,8.62
2023-03-21T05:24:14.408Z,8.75
2023-03-21T05:27:36.005Z,9.12
2023-03-21T05:30:46.014Z,9.64
2023-03-21T05:33:49.215Z,9.85
2023-03-21T05:36:52.078Z,9.90
2023-03-21T05:39:56.406Z,10.17
2023-03-21T05:42:59.936Z,10.44
2023-03-21T05:46:02.755Z,10.65
2023-03-21T05:49:05.861Z,10.89
2023-03-21T05:52:09.632Z,11.04
2023-03-21T05:55:15.320Z,11.15
2023-03-21T05:58:18.558Z,11.09
2023-03-21T06:01:22.439Z,11.17
2023-03-21T06:04:27.088Z,11.15
2023-03-21T06:07:30.109Z,11.16
2023-03-21T06:10:33.039Z,11.21
2023-03-21T06:13:38.286Z,11.40
2023-03-21T06:16:41.546Z,11.59
2023-03-21T06:19:44.915Z,11.73
2023-03-21T06:22:51.380Z,11.80
2023-03-21T06:25:54.112Z,11.78
2023-03-21T06:29:00.186Z,11.86
2023-03-21T06:32:03.495Z,11.87
2023-03-21T06:35:07.447Z,11.94
2023-03-21T06:38:10.924Z,11.89
2023-03-21T06:41:15.666Z,12.01
2023-03-21T06:44:19.570Z,12.13
2023-03-21T06:47:24.487Z,12.15
2023-03-21T06:50:27.104Z,12.17
2023-03-21T06:53:31.451Z,12.23
2023-03-21T06:56:38.198Z,12.45
2023-03-21T06:59:44.442Z,12.69
2023-03-21T07:02:50.996Z,12.96
2023-03-21T07:05:55.013Z,12.89
2023-03-21T07:09:04.849Z,12.82
2023-03-21T07:12:08.618Z,12.82
2023-03-21T07:15:12.414Z,12.78
2023-03-21T07:18:15.571Z,12.79
2023-03-21T07:21:18.982Z,12.65
2023-03-21T07:24:22.087Z,12.88
2023-03-21T07:27:24.931Z,13.24
2023-03-21T07:30:28.054Z,13.55
2023-03-21T07:33:33.185Z,13.74
2023-03-21T07:36:37.781Z,13.98
2023-03-21T07:39:43.320Z,14.24
2023-03-21T07:42:49.919Z,14.54
2023-03-21T07:46:01.246Z,14.79
2023-03-21T07:49:06.010Z,14.96
2023-03-21T07:52:08.841Z,15.15
2023-03-21T07:55:11.824Z,15.44
2023-03-21T07:58:14.386Z,15.53
2023-03-21T08:01:17.315Z,15.71
2023-03-21T08:04:20.038Z,15.98
2023-03-21T08:07:22.564Z,16.17
2023-03-21T08:10:26.260Z,16.35
2023-03-21T08:13:29.108Z,16.29
2023-03-21T08:16:32.143Z,16.53
2023-03-21T08:19:35.727Z,16.43
2023-03-21T08:22:39.423Z,16.50
2023-03-21T08:25:42.076Z,16.76
2023-03-21T08:28:45.446Z,17.00
2023-03-21T08:31:48.030Z,17.25
2023-03-21T08:34:51.133Z,17.17
2023-03-21T08:37:53.800Z,16.98
2023-03-21T08:40:59.197Z,17.41
2023-03-21T08:44:04.358Z,17.69
2023-03-21T08:47:08.331Z,17.69
2023-03-21T08:50:14.654Z,17.83
2023-03-21T08:53:17.992Z,17.95
2023-03-21T08:56:21.245Z,18.13
2023-03-21T08:59:24.402Z,18.13
2023-03-21T09:02:27.272Z,18.12
2023-03-21T09:05:30.128Z,18.44
2023-03-21T09:08:33.017Z,18.83
2023-03-21T09:11:36.053Z,19.07
2023-03-21T09:14:38.736Z,18.68
2023-03-21T09:17:48.993Z,18.35
2023-03-21T09:20:51.915Z,17.83
2023-03-21T09:23:58.558Z,17.55
2023-03-21T09:27:02.120Z,17.33
2023-03-21T09:30:07.548Z,16.97
2023-03-21T09:33:13.267Z,16.99
2023-03-21T09:36:19.190Z,17.01
2023-03-21T09:39:22.632Z,16.90
2023-03-21T09:42:51.371Z,17.14
2023-03-21T09:46:10.249Z,17.43
2023-03-21T09:49:31.076Z,17.66
2023-03-21T09:53:13.980Z,18.01
2023-03-21T09:56:17.693Z,17.79
2023-03-21T09:59:38.302Z,17.60
2023-03-21T10:02:49.609Z,17.52
2023-03-21T10:05:58.846Z,17.39
2023-03-21T10:09:15.265Z,17.36
2023-03-21T10:12:23.147Z,17.46
2023-03-21T10:15:26.832Z,17.49
2023-03-21T10:18:32.225Z,17.91
2023-03-21T10:21:59.072Z,17.90
2023-03-21T10:25:01.337Z,18.13
2023-03-21T10:28:07.449Z,18.54
2023-03-21T10:31:15.508Z,18.55
2023-03-21T10:34:32.205Z,18.69
2023-03-21T10:37:36.398Z,18.70
2023-03-21T10:40:39.108Z,18.92
2023-03-21T10:43:42.486Z,19.26
2023-03-21T10:46:56.366Z,19.11
2023-03-21T10:50:13.763Z,18.61
2023-03-21T10:53:23.134Z,18.83
2023-03-21T10:56:32.988Z,18.79
2023-03-21T10:59:43.142Z,18.69
2023-03-21T11:02:50.443Z,18.62
2023-03-21T11:05:57.398Z,18.70
2023-03-21T11:09:06.700Z,18.73
2023-03-21T11:12:18.949Z,19.04
2023-03-21T11:15:33.185Z,19.09
2023-03-21T11:18:44.076Z,19.29
2023-03-21T11:21:47.080Z,19.28
2023-03-21T11:24:53.415Z,19.32
2023-03-21T11:27:56.972Z,19.27
2023-03-21T11:31:02.826Z,19.13
2023-03-21T11:34:08.362Z,19.45
2023-03-21T11:37:21.087Z,19.67
2023-03-21T11:40:27.101Z,19.63
2023-03-21T11:43:32.772Z,19.70
2023-03-21T11:46:41.409Z,19.32
2023-03-21T11:49:44.246Z,19.29
2023-03-21T11:53:36.719Z,19.17
2023-03-21T11:56:45.325Z,19.01
2023-03-21T12:00:16.479Z,19.37
2023-03-21T12:03:49.517Z,19.58
2023-03-21T12:06:52.854Z,19.41
2023-03-21T12:10:33.475Z,19.00
2023-03-21T12:13:53.393Z,18.96
2023-03-21T12:17:24.753Z,18.82
2023-03-21T12:20:30.622Z,19.36
2023-03-21T12:23:44.591Z,20.02
2023-03-21T12:26:59.414Z,20.45
2023-03-21T12:30:14.754Z,19.59
2023-03-21T12:33:27.137Z,19.70
2023-03-21T12:37:03.616Z,20.01
2023-03-21T12:40:22.309Z,20.44
2023-03-21T12:43:52.801Z,21.68
2023-03-21T12:47:22.575Z,22.25
2023-03-21T12:50:32.866Z,23.63
2023-03-21T12:54:07.628Z,24.49
2023-03-21T12:57:15.652Z,24.40
2023-03-21T13:00:23.979Z,23.32
2023-03-21T13:03:43.251Z,22.25
2023-03-21T13:06:48.098Z,21.69
2023-03-21T13:09:55.086Z,20.86
2023-03-21T13:13:27.217Z,20.38
2023-03-21T13:16:52.065Z,20.00
2023-03-21T13:20:06.647Z,19.54
2023-03-21T13:23:09.914Z,19.24
2023-03-21T13:26:12.869Z,19.52
2023-03-21T13:29:28.494Z,24.62
2023-03-21T13:32:40.772Z,30.08
2023-03-21T13:35:45.044Z,28.63
2023-03-21T13:38:53.510Z,25.95
2023-03-21T13:42:03.817Z,27.56
2023-03-21T13:45:11.743Z,32.00
2023-03-21T13:48:29.800Z,34.59
2023-03-21T13:51:43.807Z,38.24
2023-03-21T13:54:56.081Z,39.48
2023-03-21T13:57:58.899Z,40.22
2023-03-21T14:01:41.740Z,40.08
2023-03-21T14:05:03.679Z,39.88
2023-03-21T14:08:15.645Z,40.20
2023-03-21T14:11:21.705Z,40.86
2023-03-21T14:14:29.756Z,40.99
2023-03-21T14:17:35.469Z,42.27
2023-03-21T14:20:42.273Z,43.60
2023-03-21T14:23:45.180Z,45.05
2023-03-21T14:26:53.512Z,45.37
2023-03-21T14:29:58.769Z,43.85
2023-03-21T14:33:42.085Z,43.02
2023-03-21T14:36:51.635Z,43.19
2023-03-21T14:40:02.484Z,43.13
2023-03-21T14:43:06.654Z,42.80
2023-03-21T14:46:13.542Z,43.71
2023-03-21T14:49:22.627Z,43.63
2023-03-21T14:52:31.716Z,43.45
2023-03-21T14:55:43.240Z,42.52
2023-03-21T14:58:47.356Z,42.62
2023-03-21T15:01:54.215Z,40.97
2023-03-21T15:04:59.226Z,38.09
2023-03-21T15:08:24.049Z,35.51
2023-03-21T15:11:35.977Z,36.99
2023-03-21T15:14:41.848Z,36.71
2023-03-21T15:17:44.676Z,37.79
2023-03-21T15:20:50.362Z,38.36
2023-03-21T15:23:56.911Z,37.79
2023-03-21T15:27:05.023Z,38.65
2023-03-21T15:30:21.064Z,37.24
2023-03-21T15:33:25.602Z,35.87
2023-03-21T15:36:33.280Z,33.87
2023-03-21T15:39:36.585Z,32.44
2023-03-21T15:42:41.395Z,32.19
2023-03-21T15:45:56.742Z,29.76
2023-03-21T15:49:17.269Z,27.61
2023-03-21T15:52:20.482Z,25.61
2023-03-21T15:55:43.634Z,23.28
2023-03-21T15:58:49.167Z,21.43
2023-03-21T16:01:52.444Z,20.24
2023-03-21T16:05:01.663Z,19.57
2023-03-21T16:08:21.255Z,18.78
2023-03-21T16:11:28.473Z,18.08
2023-03-21T16:14:31.122Z,17.67
2023-03-21T16:17:39.596Z,17.23
2023-03-21T16:20:45.161Z,16.99
2023-03-21T16:23:49.367Z,16.58
2023-03-21T16:26:53.434Z,16.42
2023-03-21T16:29:56.445Z,16.04
2023-03-21T16:32:59.134Z,15.93
2023-03-21T16:36:02.805Z,15.59
